الصفحة الرئيسية
METAR-TAF:

METAR-TAF

مطار :

جزر برمودا, جزر برمودا

دائرة عرض: 32-22N, خط طول: 064-41W, ارتفاع: 6 متر

مراقبة الطقس الحالي

تاريخ ووقت الإصدار 1ساعة و 6 دقيقة قبل الساعة 16:55UTC
ريح 12 عقدة من الجنوب الشرقي
درجة الحرارة 23°درجة مئوية
الرطوبة 65%
ضغط 1022 hPa
الرؤية 10 كم أو أكثر
غيوم قليلة على ارتفاع 3000 قدم
غيوم متفرقة على ارتفاع 4500 قدم
غيوم متفرقة على ارتفاع 18000 قدم
غيوم مفككة على ارتفاع 30000 قدم

METAR: TXKF 221655Z 14012KT 9999 FEW030 SCT045 SCT180 BKN300 23/16 Q1022

زمن: 15:01 (18:01 UTC)

توقعات

تاريخ ووقت الإصدار 26 دقيقة قبل الساعة 17:35UTC
التوقعات صالحة من22 الساعة 18 UTC إلى 23 الساعة 18 UTC
ريح 10 عقدة من الجنوب الشرقي
الرؤية 10 كم أو أكثر
غيوم قليلة على ارتفاع 3000 قدم
غيوم متفرقة على ارتفاع 18000 قدم
غيوم مفككة على ارتفاع 30000 قدم
أصبح
من 23 الساعة 14 UTC إلى 23 الساعة 18 UTC
ريح 5 عقدةمن اتجاهات متغيرة

TAF: TXKF 221735Z 2218/2318 13010KT 9999 FEW030 SCT180 BKN300 BECMG 2314/2318 VRB05KT

أرصاد الطقس والتوقعات من أكثر من 4000 مطار (تقارير الطقس للمطار METAR والتنبؤ بالطقس بالمطارTAF).

المحطات المتاحة هي النقط الصفراء والحمراء على الخريطة.

حرك المؤشر فوق النقطة لمعرفة اسم المحطة.

ثم انقر لمعرفة أرصاد وتوقعات الطقس.

لتغيير الخارطة: اضغط على الأزرار الخضراء مع رمز الصليب الأسود للتكبير. على الزر الأخضر مع شرطة للتصغير، أو على الأسهم الخضراء للخرائط المجاورة.


METAR-TAF: